Time;durP1;ratioP1;P1;durP2;ratioP2;P2;SDS_P1;SDS_P2;PMS_P1;PMS_P2;Temp;Humidity;BMP_temperature;BMP_pressure;BME280_temperature;BME280_humidity;BME280_pressure;Samples;Min_cycle;Max_cycle;Signal;HPM_P1;HPM_P2
2022/09/14 00:01:16;;;;;;;2.33;1.17;;;;;;;12.82;98.14;100216.97;6068907;28;20392;-64
2022/09/14 00:04:16;;;;;;;2.20;1.05;;;;;;;12.65;97.69;100199.41;6068324;28;20038;-64
2022/09/14 00:07:11;;;;;;;4.78;1.30;;;;;;;12.58;97.30;100195.78;6064597;28;20037;-65
2022/09/14 00:10:07;;;;;;;6.77;2.40;;;;;;;12.44;98.38;100210.63;6068820;28;20041;-64
2022/09/14 00:13:02;;;;;;;3.92;1.55;;;;;;;12.51;99.13;100208.91;6069505;28;20461;-64
2022/09/14 00:16:02;;;;;;;3.80;1.40;;;;;;;12.48;99.43;100195.97;6069078;28;20053;-65
2022/09/14 00:19:04;;;;;;;5.90;1.30;;;;;;;12.54;99.75;100189.13;6069253;28;20030;-64
2022/09/14 00:22:00;;;;;;;5.93;1.27;;;;;;;12.24;98.66;100203.16;6071765;28;20029;-63
2022/09/14 00:24:55;;;;;;;4.35;1.40;;;;;;;12.01;98.62;100202.22;6073998;28;20065;-64
2022/09/14 00:27:52;;;;;;;6.97;1.97;;;;;;;11.81;99.20;100185.78;6073777;28;20384;-64
2022/09/14 00:30:47;;;;;;;4.75;1.85;;;;;;;11.73;99.57;100188.44;6071993;28;20033;-65
2022/09/14 00:33:43;;;;;;;4.50;1.30;;;;;;;11.66;100.00;100192.72;6072878;28;20068;-64
2022/09/14 00:36:41;;;;;;;6.82;1.92;;;;;;;11.72;100.00;100208.84;6073301;28;20029;-64
2022/09/14 00:39:36;;;;;;;7.22;1.70;;;;;;;11.62;100.00;100186.91;6073258;28;20775;-64
2022/09/14 00:42:32;;;;;;;2.53;1.10;;;;;;;11.75;100.00;100187.28;6072887;28;20029;-65
2022/09/14 00:45:27;;;;;;;8.23;1.40;;;;;;;11.70;100.00;100184.28;6073884;28;20723;-65
2022/09/14 00:48:24;;;;;;;6.63;1.50;;;;;;;11.63;100.00;100193.88;6073381;28;20519;-65
2022/09/14 00:51:20;;;;;;;5.93;1.42;;;;;;;11.79;100.00;100188.63;6070872;28;20269;-64
2022/09/14 00:54:16;;;;;;;8.95;2.10;;;;;;;11.77;100.00;100179.97;6072077;28;20384;-63
2022/09/14 00:57:11;;;;;;;6.78;1.40;;;;;;;11.72;100.00;100184.94;6073161;28;20042;-64
2022/09/14 01:00:09;;;;;;;9.48;1.88;;;;;;;11.70;100.00;100168.34;6071102;28;20465;-64
2022/09/14 01:03:05;;;;;;;8.48;1.92;;;;;;;11.98;100.00;100181.28;6071274;28;20033;-65
2022/09/14 01:06:17;;;;;;;8.50;1.70;;;;;;;11.89;100.00;100178.63;6072677;28;20381;-64
2022/09/14 01:09:44;;;;;;;6.60;2.03;;;;;;;12.06;100.00;100178.63;6071615;28;20436;-64
2022/09/14 01:13:04;;;;;;;8.55;2.05;;;;;;;12.39;100.00;100186.34;6072016;28;20091;-63
2022/09/14 01:16:24;;;;;;;7.03;2.10;;;;;;;12.18;100.00;100175.44;6070971;28;20037;-65
2022/09/14 01:19:25;;;;;;;8.23;2.58;;;;;;;11.88;100.00;100163.69;6071470;28;20038;-64
2022/09/14 01:22:24;;;;;;;10.95;1.88;;;;;;;11.81;100.00;100162.69;6070744;28;20025;-64
2022/09/14 01:25:27;;;;;;;7.57;1.85;;;;;;;11.60;100.00;100151.72;6072651;28;20036;-65
2022/09/14 01:28:34;;;;;;;4.15;1.83;;;;;;;11.81;100.00;100152.06;6072257;28;20037;-63
2022/09/14 01:31:31;;;;;;;;;;;;;;;12.08;100.00;100171.28;6071092;28;20036;-65
2022/09/14 01:34:32;;;;;;;8.82;1.85;;;;;;;11.98;100.00;100170.66;6079326;28;19928;-64
2022/09/14 01:37:34;;;;;;;6.20;1.90;;;;;;;11.83;100.00;100173.16;6071675;28;20041;-65
2022/09/14 01:40:31;;;;;;;4.78;2.20;;;;;;;11.91;100.00;100179.28;6071686;28;20060;-64
2022/09/14 01:43:37;;;;;;;7.15;2.30;;;;;;;11.89;100.00;100178.63;6070690;28;20172;-65
2022/09/14 01:46:38;;;;;;;5.07;1.63;;;;;;;12.09;100.00;100184.44;6070932;28;20070;-64
2022/09/14 01:49:43;;;;;;;7.55;2.13;;;;;;;12.28;100.00;100180.56;6070889;28;20431;-64
2022/09/14 01:52:43;;;;;;;6.45;2.35;;;;;;;11.93;100.00;100168.47;6069524;28;20064;-63
2022/09/14 01:55:45;;;;;;;8.38;2.35;;;;;;;11.84;100.00;100180.97;6070617;28;20052;-65
2022/09/14 01:58:57;;;;;;;4.72;1.80;;;;;;;11.70;100.00;100168.34;6070663;28;20088;-65
2022/09/14 02:01:56;;;;;;;5.38;1.80;;;;;;;11.69;100.00;100168.50;6069220;28;20033;-65
2022/09/14 02:04:57;;;;;;;7.57;1.80;;;;;;;11.86;100.00;100163.03;6070696;28;20034;-65
2022/09/14 02:07:52;;;;;;;6.00;2.00;;;;;;;12.09;100.00;100157.03;6070640;28;20061;-64
2022/09/14 02:10:48;;;;;;;5.70;1.92;;;;;;;12.22;100.00;100149.34;6069431;28;20083;-65
2022/09/14 02:13:43;;;;;;;6.07;2.47;;;;;;;12.42;100.00;100142.63;6070911;28;20037;-65
2022/09/14 02:16:42;;;;;;;4.87;1.87;;;;;;;12.25;100.00;100144.53;6071137;28;20068;-64
2022/09/14 02:19:45;;;;;;;6.70;1.90;;;;;;;12.14;100.00;100131.59;6071357;28;20038;-64
2022/09/14 02:22:41;;;;;;;4.80;1.70;;;;;;;11.95;100.00;100124.00;6069445;28;20034;-65
2022/09/14 02:25:39;;;;;;;7.47;2.10;;;;;;;12.27;100.00;100117.75;6070644;28;20044;-65
2022/09/14 02:28:35;;;;;;;9.43;2.35;;;;;;;12.30;100.00;100128.03;6070732;28;20049;-64
2022/09/14 02:31:49;;;;;;;7.32;2.40;;;;;;;12.38;100.00;100141.31;6067905;28;20401;-64
2022/09/14 02:35:26;;;;;;;4.72;2.33;;;;;;;12.37;100.00;100142.31;6069259;28;20034;-65
2022/09/14 02:38:39;;;;;;;5.78;2.13;;;;;;;12.31;100.00;100140.34;6069638;28;20049;-65
2022/09/14 02:41:38;;;;;;;;;;;;;;;12.34;100.00;100148.78;6068517;28;20069;-63
2022/09/14 02:44:53;;;;;;;10.43;2.05;;;;;;;12.16;100.00;100142.03;6069007;28;19994;-65
2022/09/14 02:48:06;;;;;;;4.45;2.13;;;;;;;12.27;100.00;100150.50;6088855;28;20061;-64
2022/09/14 02:51:17;;;;;;;8.23;3.25;;;;;;;12.27;100.00;100153.16;6083855;28;20480;-65
2022/09/14 02:54:27;;;;;;;4.72;2.08;;;;;;;12.34;100.00;100145.31;6069752;28;20053;-64
2022/09/14 02:57:22;;;;;;;3.95;2.10;;;;;;;12.30;100.00;100151.97;6069169;28;20036;-64
2022/09/14 03:00:18;;;;;;;9.07;2.37;;;;;;;12.25;100.00;100136.53;6070558;28;20037;-65
2022/09/14 03:03:16;;;;;;;4.88;2.25;;;;;;;12.06;100.00;100136.09;6091556;28;21557;-65
2022/09/14 03:06:12;;;;;;;7.78;2.13;;;;;;;12.19;100.00;100131.91;6069946;28;20053;-65
2022/09/14 03:09:07;;;;;;;3.70;1.75;;;;;;;12.15;100.00;100129.78;6069487;28;20056;-65
2022/09/14 03:12:03;;;;;;;7.67;2.40;;;;;;;12.12;100.00;100130.09;6073606;28;20116;-64
2022/09/14 03:14:58;;;;;;;6.72;2.10;;;;;;;12.10;100.00;100132.09;6069409;28;20291;-65
2022/09/14 03:17:54;;;;;;;5.90;2.40;;;;;;;12.14;100.00;100112.16;6070304;28;20034;-64
2022/09/14 03:20:49;;;;;;;5.97;2.63;;;;;;;12.14;100.00;100128.09;6076544;28;20102;-65
2022/09/14 03:23:50;;;;;;;5.87;2.37;;;;;;;12.15;100.00;100119.13;6069694;28;20103;-64
2022/09/14 03:26:46;;;;;;;;;;;;;;;12.03;100.00;100137.25;6070310;28;20029;-64
2022/09/14 03:29:41;;;;;;;5.57;1.67;;;;;;;11.94;100.00;100117.84;6069572;28;20366;-63
2022/09/14 03:32:38;;;;;;;8.63;2.50;;;;;;;12.12;100.00;100125.59;6069076;28;20068;-65
2022/09/14 03:35:33;;;;;;;5.82;1.90;;;;;;;11.96;100.00;100108.88;6069677;28;20029;-65
2022/09/14 03:38:29;;;;;;;6.00;1.90;;;;;;;11.90;100.00;100118.38;6068407;28;20038;-65
2022/09/14 03:41:24;;;;;;;7.90;2.15;;;;;;;11.74;100.00;100110.41;6068392;28;20029;-64
2022/09/14 03:44:20;;;;;;;6.13;2.20;;;;;;;11.99;100.00;100109.34;6068831;28;20104;-64
2022/09/14 03:47:15;;;;;;;5.83;2.40;;;;;;;12.03;100.00;100115.16;6069250;28;20495;-65
2022/09/14 03:50:11;;;;;;;8.67;2.63;;;;;;;11.82;100.00;100087.31;6068399;28;20065;-64
2022/09/14 03:53:06;;;;;;;7.63;2.05;;;;;;;11.99;100.00;100092.56;6069458;28;20037;-65
2022/09/14 03:56:06;;;;;;;7.78;2.30;;;;;;;11.83;100.00;100077.50;6078060;28;20025;-65
2022/09/14 03:59:02;;;;;;;9.07;2.67;;;;;;;11.94;100.00;100075.34;6098396;28;20455;-64
2022/09/14 04:01:57;;;;;;;5.83;2.03;;;;;;;12.00;100.00;100076.47;6097809;28;20045;-65
2022/09/14 04:04:53;;;;;;;7.13;1.83;;;;;;;11.81;100.00;100069.72;6094057;28;20107;-65
2022/09/14 04:07:48;;;;;;;6.90;1.90;;;;;;;11.82;100.00;100086.50;6074132;28;20036;-65
2022/09/14 04:10:43;;;;;;;4.93;2.00;;;;;;;11.66;100.00;100087.31;6073474;28;20064;-64
2022/09/14 04:13:38;;;;;;;4.43;2.00;;;;;;;11.41;100.00;100050.34;6073764;28;20029;-65
2022/09/14 04:16:34;;;;;;;6.00;2.33;;;;;;;11.45;100.00;100071.06;6074042;28;20025;-65
2022/09/14 04:19:29;;;;;;;7.37;2.10;;;;;;;11.34;100.00;100080.19;6073826;28;20260;-65
2022/09/14 04:22:25;;;;;;;5.95;2.05;;;;;;;11.53;100.00;100081.69;6073394;28;20152;-64
2022/09/14 04:25:22;;;;;;;7.27;1.97;;;;;;;11.66;100.00;100071.38;6073930;28;20642;-64
2022/09/14 04:28:17;;;;;;;6.38;2.13;;;;;;;11.57;100.00;100082.19;6073438;28;20116;-63
2022/09/14 04:31:13;;;;;;;5.82;2.05;;;;;;;11.31;100.00;100072.56;6073032;28;20071;-64
2022/09/14 04:34:11;;;;;;;8.18;1.90;;;;;;;11.23;100.00;100069.91;6073277;28;20788;-65
2022/09/14 04:37:07;;;;;;;5.40;2.22;;;;;;;11.13;100.00;100073.72;6073612;28;20033;-65
2022/09/14 04:40:02;;;;;;;9.17;2.07;;;;;;;10.93;100.00;100067.06;6072664;28;20065;-65
2022/09/14 04:42:57;;;;;;;7.25;2.08;;;;;;;10.96;100.00;100067.59;6072952;28;20021;-65
2022/09/14 04:45:53;;;;;;;8.27;2.03;;;;;;;10.96;100.00;100072.06;6073452;28;20037;-64
2022/09/14 04:48:49;;;;;;;4.17;2.07;;;;;;;11.02;100.00;100096.13;6073080;28;20119;-65
2022/09/14 04:51:44;;;;;;;8.13;2.50;;;;;;;11.05;100.00;100076.38;6072680;28;20271;-65
2022/09/14 04:54:39;;;;;;;4.67;2.20;;;;;;;11.07;100.00;100077.88;6072603;28;20029;-65
2022/09/14 04:57:35;;;;;;;5.95;2.45;;;;;;;11.13;100.00;100082.53;6072463;28;20256;-65
2022/09/14 05:00:32;;;;;;;9.47;2.43;;;;;;;11.11;100.00;100089.00;6072390;28;20326;-65
2022/09/14 05:03:28;;;;;;;6.03;2.30;;;;;;;11.23;100.00;100085.84;6072696;28;20029;-63
2022/09/14 05:06:25;;;;;;;5.57;2.17;;;;;;;11.32;100.00;100095.47;6072670;28;20029;-65
2022/09/14 05:09:21;;;;;;;15.63;4.45;;;;;;;11.30;100.00;100092.16;6072809;28;20604;-64
2022/09/14 05:12:16;;;;;;;7.37;2.60;;;;;;;11.42;100.00;100094.47;6072296;28;20048;-66
2022/09/14 05:15:11;;;;;;;5.07;2.00;;;;;;;11.28;100.00;100077.38;6072217;28;20132;-66
2022/09/14 05:18:06;;;;;;;8.93;2.40;;;;;;;11.20;100.00;100090.63;6072411;28;20052;-65
2022/09/14 05:21:04;;;;;;;5.70;2.33;;;;;;;11.20;100.00;100077.38;6072037;28;20565;-64
2022/09/14 05:24:02;;;;;;;6.13;2.88;;;;;;;11.29;100.00;100079.88;6072223;28;20033;-64
2022/09/14 05:26:57;;;;;;;6.50;2.50;;;;;;;11.44;100.00;100093.28;6072522;28;20106;-65
2022/09/14 05:29:53;;;;;;;7.43;2.10;;;;;;;11.43;100.00;100093.47;6071850;28;20038;-64
2022/09/14 05:32:48;;;;;;;5.53;2.57;;;;;;;11.29;100.00;100071.06;6071918;28;20656;-65
2022/09/14 05:35:44;;;;;;;6.27;2.33;;;;;;;11.37;100.00;100084.34;6072377;28;20033;-65
2022/09/14 05:38:40;;;;;;;6.32;2.80;;;;;;;11.63;100.00;100065.59;6070911;28;20042;-64
2022/09/14 05:41:36;;;;;;;6.97;3.43;;;;;;;11.81;100.00;100069.72;6071551;28;20061;-66
2022/09/14 05:44:31;;;;;;;7.97;2.50;;;;;;;11.96;100.00;100071.69;6074288;28;20176;-65
2022/09/14 05:47:30;;;;;;;5.13;2.10;;;;;;;11.74;100.00;100074.03;6071754;28;20041;-65
2022/09/14 05:50:25;;;;;;;9.18;2.10;;;;;;;11.54;100.00;100058.63;6071263;28;20264;-65
2022/09/14 05:53:21;;;;;;;3.55;1.73;;;;;;;11.52;100.00;100058.81;6071529;28;20040;-64
2022/09/14 05:56:17;;;;;;;5.37;1.93;;;;;;;11.79;100.00;100065.59;6071689;28;20089;-64
2022/09/14 05:59:12;;;;;;;9.82;2.55;;;;;;;12.23;100.00;100069.41;6071641;28;20112;-66
2022/09/14 06:02:09;;;;;;;5.05;2.30;;;;;;;12.41;100.00;100078.00;6070398;28;20380;-63
2022/09/14 06:05:04;;;;;;;6.28;2.25;;;;;;;12.57;100.00;100066.44;6071328;28;20029;-63
2022/09/14 06:08:00;;;;;;;5.35;2.08;;;;;;;12.61;100.00;100075.69;6071074;28;20443;-62
2022/09/14 06:10:55;;;;;;;7.13;2.70;;;;;;;12.74;100.00;100073.31;6070684;28;20112;-63
2022/09/14 06:13:50;;;;;;;5.07;2.20;;;;;;;12.70;99.62;100064.03;6070935;28;20430;-64
2022/09/14 06:16:46;;;;;;;5.87;1.97;;;;;;;12.80;100.00;100067.28;6071101;28;20736;-63
2022/09/14 06:19:41;;;;;;;11.10;2.13;;;;;;;12.79;99.38;100068.31;6069869;28;20279;-64
2022/09/14 06:22:36;;;;;;;7.97;2.10;;;;;;;13.18;99.75;100059.41;6070742;28;20022;-63
2022/09/14 06:25:32;;;;;;;4.93;2.03;;;;;;;13.17;98.37;100068.38;6071152;28;20069;-64
2022/09/14 06:28:27;;;;;;;5.95;1.73;;;;;;;13.13;96.96;100053.78;6070898;28;20037;-64
2022/09/14 06:31:24;;;;;;;6.78;2.53;;;;;;;13.73;97.79;100041.22;6070077;28;20033;-64
2022/09/14 06:34:19;;;;;;;4.80;2.10;;;;;;;13.81;94.64;100041.13;6070529;28;20444;-64
2022/09/14 06:37:14;;;;;;;5.50;1.97;;;;;;;13.83;93.61;100046.31;6070742;28;20480;-63
2022/09/14 06:40:10;;;;;;;6.77;1.93;;;;;;;13.97;93.30;100043.63;6070099;28;20021;-63
2022/09/14 06:43:05;;;;;;;5.47;1.73;;;;;;;13.84;91.04;100038.09;6070347;28;20025;-64
2022/09/14 06:46:03;;;;;;;8.60;1.70;;;;;;;13.97;91.20;100048.94;6070958;28;20026;-64
2022/09/14 06:49:04;;;;;;;6.93;1.67;;;;;;;14.21;90.50;100042.53;6070669;28;20105;-64
2022/09/14 06:51:59;;;;;;;10.20;2.22;;;;;;;14.14;89.09;100052.25;6069472;28;20029;-65
2022/09/14 06:54:55;;;;;;;7.07;2.40;;;;;;;14.33;88.36;100041.03;6070415;28;20477;-65
2022/09/14 06:57:50;;;;;;;9.57;2.38;;;;;;;14.51;89.43;100057.47;6070073;28;20025;-64
2022/09/14 07:00:45;;;;;;;7.20;2.60;;;;;;;14.53;88.64;100051.97;6069759;28;20033;-62
2022/09/14 07:03:42;;;;;;;4.77;2.30;;;;;;;14.27;87.89;100057.75;6070238;28;20091;-65
2022/09/14 07:06:42;;;;;;;8.88;2.30;;;;;;;14.55;87.72;100064.09;6069973;28;20025;-65
2022/09/14 07:09:38;;;;;;;8.98;1.80;;;;;;;14.32;86.18;100062.59;6070170;28;20045;-64
2022/09/14 07:12:33;;;;;;;5.20;1.60;;;;;;;14.32;87.37;100050.88;6069460;28;20029;-66
2022/09/14 07:15:28;;;;;;;4.07;1.87;;;;;;;14.50;86.40;100053.16;6069872;28;20032;-66
2022/09/14 07:18:28;;;;;;;7.87;2.27;;;;;;;14.32;86.01;100054.59;6070092;28;20375;-64
2022/09/14 07:21:25;;;;;;;5.43;1.92;;;;;;;14.31;87.30;100059.06;6069474;28;20088;-65
2022/09/14 07:24:20;;;;;;;7.30;2.13;;;;;;;14.55;86.45;100057.94;6068156;28;20030;-64
2022/09/14 07:27:16;;;;;;;4.28;1.52;;;;;;;14.55;85.17;100047.25;6068991;28;20036;-65
2022/09/14 07:30:11;;;;;;;4.63;1.80;;;;;;;14.89;85.24;100058.13;6089409;28;20090;-64
2022/09/14 07:33:06;;;;;;;5.07;1.80;;;;;;;15.09;83.45;100048.44;6078707;28;20108;-63
2022/09/14 07:36:07;;;;;;;5.07;2.00;;;;;;;15.32;81.86;100058.94;6069752;28;20465;-64
2022/09/14 07:39:04;;;;;;;5.85;1.80;;;;;;;15.39;80.93;100047.28;6069224;28;20107;-63
2022/09/14 07:41:59;;;;;;;6.22;1.50;;;;;;;15.27;81.47;100067.50;6068433;28;20041;-64
2022/09/14 07:44:54;;;;;;;4.73;2.27;;;;;;;15.69;81.03;100039.09;6069210;28;20033;-63
2022/09/14 07:47:50;;;;;;;4.40;1.40;;;;;;;16.09;79.04;100051.66;6069060;28;20380;-63
2022/09/14 07:50:46;;;;;;;5.43;1.63;;;;;;;15.71;78.80;100048.56;6068895;28;20029;-63
2022/09/14 07:53:42;;;;;;;5.82;1.85;;;;;;;16.22;78.69;100062.47;6069075;28;20036;-64
2022/09/14 07:56:38;;;;;;;3.72;1.70;;;;;;;16.46;77.46;100056.59;6069042;28;20080;-64
2022/09/14 07:59:33;;;;;;;4.38;1.73;;;;;;;17.00;74.93;100042.34;6078574;28;20055;-64
2022/09/14 08:02:29;;;;;;;4.67;1.50;;;;;;;16.40;76.23;100037.81;6092927;28;20833;-63
2022/09/14 08:05:25;;;;;;;4.72;1.60;;;;;;;16.86;76.42;100044.19;6093451;28;20029;-63
2022/09/14 08:08:21;;;;;;;4.30;1.30;;;;;;;17.35;73.73;100045.66;6089293;28;20036;-64
2022/09/14 08:11:19;;;;;;;6.65;1.55;;;;;;;17.41;73.36;100047.53;6068620;28;20040;-63
2022/09/14 08:14:14;;;;;;;6.55;1.95;;;;;;;17.03;74.17;100039.25;6069413;28;20029;-63
2022/09/14 08:17:09;;;;;;;6.77;1.40;;;;;;;17.42;73.71;100044.63;6069220;28;20040;-64
2022/09/14 08:20:05;;;;;;;3.37;1.37;;;;;;;17.34;73.56;100036.81;6068896;28;20084;-63
2022/09/14 08:23:01;;;;;;;4.35;1.40;;;;;;;17.21;72.96;100053.72;6069454;28;20029;-64
2022/09/14 08:26:01;;;;;;;6.73;2.13;;;;;;;17.13;73.24;100037.00;6067660;28;20049;-63
2022/09/14 08:28:59;;;;;;;3.03;1.63;;;;;;;16.94;73.75;100029.75;6067486;28;20264;-64
2022/09/14 08:31:54;;;;;;;6.00;1.75;;;;;;;16.60;75.44;100039.56;6088075;28;20040;-65
2022/09/14 08:34:50;;;;;;;6.23;2.10;;;;;;;16.32;76.35;100030.81;6080415;28;20064;-64
2022/09/14 08:37:46;;;;;;;4.78;1.52;;;;;;;17.26;72.71;100034.31;6066514;28;20783;-64
2022/09/14 08:40:43;;;;;;;8.73;1.50;;;;;;;17.44;73.28;100028.34;6067366;28;20051;-63
2022/09/14 08:43:39;;;;;;;8.07;1.83;;;;;;;18.04;70.22;100030.78;6071655;28;20036;-64
2022/09/14 08:46:43;;;;;;;5.53;1.43;;;;;;;18.12;70.31;100035.06;6073129;28;20029;-64
2022/09/14 08:49:51;;;;;;;4.70;1.52;;;;;;;17.88;71.25;100030.41;6071732;28;20692;-65
2022/09/14 08:52:52;;;;;;;7.03;1.40;;;;;;;18.08;69.60;100028.47;6071022;28;20029;-64
2022/09/14 08:55:55;;;;;;;7.63;1.60;;;;;;;18.39;70.28;100031.25;6071627;28;20026;-63
2022/09/14 08:59:22;;;;;;;8.80;1.63;;;;;;;18.79;66.96;100032.72;6071138;28;20037;-63
2022/09/14 09:02:31;;;;;;;7.20;1.42;;;;;;;18.51;68.84;100034.94;6072208;28;20033;-63
2022/09/14 09:05:48;;;;;;;7.43;1.50;;;;;;;18.53;67.89;100029.38;6072520;28;20033;-64
2022/09/14 09:09:01;;;;;;;5.47;1.45;;;;;;;18.22;68.41;100013.97;6072901;28;20036;-64
2022/09/14 09:11:58;;;;;;;7.22;1.50;;;;;;;18.38;67.12;100018.84;6071365;28;20038;-64
2022/09/14 09:14:56;;;;;;;4.57;1.55;;;;;;;18.56;66.88;100010.97;6071041;28;20476;-64
2022/09/14 09:17:58;;;;;;;10.55;1.50;;;;;;;18.85;65.51;100010.38;6070787;28;20033;-64
2022/09/14 09:20:58;;;;;;;8.13;1.58;;;;;;;19.14;64.45;100010.78;6070463;28;20112;-63
2022/09/14 09:23:55;;;;;;;6.90;1.15;;;;;;;18.75;65.61;100017.25;6071851;28;20045;-64
2022/09/14 09:26:50;;;;;;;6.07;1.30;;;;;;;18.93;64.71;100002.06;6070707;28;20792;-62
2022/09/14 09:29:45;;;;;;;7.60;1.47;;;;;;;19.51;63.12;100008.00;6070704;28;20029;-63
2022/09/14 09:32:41;;;;;;;5.50;1.35;;;;;;;20.31;60.26;100010.69;6071700;28;20052;-63
2022/09/14 09:35:36;;;;;;;7.40;1.30;;;;;;;20.29;59.71;99996.63;6070993;28;20060;-64
2022/09/14 09:38:32;;;;;;;4.97;1.10;;;;;;;20.16;60.38;99997.59;6071934;28;20041;-63
2022/09/14 09:41:30;;;;;;;3.13;1.00;;;;;;;20.47;60.13;100004.66;6071715;28;20033;-64
2022/09/14 09:44:26;;;;;;;5.63;1.60;;;;;;;19.84;60.58;99991.53;6070675;28;20034;-64
2022/09/14 09:47:31;;;;;;;5.75;1.20;;;;;;;20.07;62.53;99994.38;6071779;28;20030;-63
2022/09/14 09:50:26;;;;;;;4.55;1.25;;;;;;;19.72;62.87;100005.94;6071260;28;20029;-64
2022/09/14 09:53:22;;;;;;;7.05;1.45;;;;;;;19.51;64.48;99999.13;6071620;28;20044;-63
2022/09/14 09:56:25;;;;;;;7.40;1.58;;;;;;;19.48;64.70;99988.81;6071375;28;20029;-64
2022/09/14 09:59:37;;;;;;;5.80;1.42;;;;;;;19.46;65.78;99983.63;6070494;28;20041;-63
2022/09/14 10:02:32;;;;;;;5.55;1.48;;;;;;;19.67;65.75;99987.78;6071107;28;20031;-64
2022/09/14 10:05:30;;;;;;;4.20;1.20;;;;;;;19.36;64.21;99977.09;6071672;28;20037;-63
2022/09/14 10:08:25;;;;;;;8.10;1.92;;;;;;;19.50;65.43;99973.25;6070373;28;20683;-63
2022/09/14 10:11:36;;;;;;;7.73;1.43;;;;;;;19.58;64.95;99968.44;6071088;28;20033;-64
2022/09/14 10:14:35;;;;;;;7.53;1.50;;;;;;;20.03;63.47;99968.94;6071465;28;20033;-64
2022/09/14 10:17:30;;;;;;;8.45;2.15;;;;;;;20.11;62.19;99974.03;6071164;28;20036;-64
2022/09/14 10:20:25;;;;;;;7.87;2.50;;;;;;;19.77;62.69;99971.13;6068781;28;20033;-64
2022/09/14 10:23:26;;;;;;;7.07;1.75;;;;;;;20.05;63.83;99983.03;6071448;28;20143;-64
2022/09/14 10:26:23;;;;;;;10.07;2.10;;;;;;;19.70;63.31;99987.34;6070112;28;20025;-65
2022/09/14 10:29:41;;;;;;;7.57;1.50;;;;;;;19.58;63.92;99989.13;6070202;28;20060;-63
2022/09/14 10:32:37;;;;;;;8.63;1.42;;;;;;;19.57;63.46;99984.78;6068806;28;20034;-63
2022/09/14 10:35:36;;;;;;;5.95;1.30;;;;;;;19.24;62.40;99997.69;6069748;28;20484;-63
2022/09/14 10:38:36;;;;;;;4.82;1.40;;;;;;;19.35;60.40;99987.00;6070849;28;20171;-64
2022/09/14 10:41:38;;;;;;;4.05;1.17;;;;;;;19.30;60.63;99972.59;6068899;28;20065;-63
2022/09/14 10:44:56;;;;;;;4.10;1.38;;;;;;;19.60;59.94;99973.56;6069584;28;20036;-63
2022/09/14 10:48:18;;;;;;;7.15;1.30;;;;;;;19.63;58.93;99965.06;6070897;28;20042;-64
2022/09/14 10:51:38;;;;;;;3.08;1.00;;;;;;;19.31;60.95;99968.88;6069929;28;20114;-64
2022/09/14 10:54:40;;;;;;;4.22;1.40;;;;;;;19.26;59.22;99956.09;6069461;28;20037;-63
2022/09/14 10:57:46;;;;;;;7.15;1.13;;;;;;;19.36;59.29;99963.66;6070460;28;20057;-62
2022/09/14 11:00:56;;;;;;;5.72;1.48;;;;;;;19.09;60.92;99957.69;6069881;28;20484;-63
2022/09/14 11:04:01;;;;;;;6.80;1.13;;;;;;;19.60;57.60;99957.44;6068656;28;20029;-63
2022/09/14 11:07:34;;;;;;;6.00;1.20;;;;;;;20.26;56.64;99970.16;6070479;28;20059;-63
2022/09/14 11:10:54;;;;;;;6.13;1.30;;;;;;;20.24;55.94;99965.00;6042631;28;20056;-64
2022/09/14 11:14:17;;;;;;;4.15;1.48;;;;;;;20.36;56.26;99948.88;6070294;28;20045;-64
2022/09/14 11:17:46;;;;;;;4.57;1.65;;;;;;;20.51;55.29;99963.59;6068470;28;20110;-64
2022/09/14 11:21:00;;;;;;;6.00;1.17;;;;;;;20.58;54.33;99952.72;6067437;28;20073;-65
2022/09/14 11:24:10;;;;;;;3.75;1.20;;;;;;;20.39;56.97;99948.41;6069732;28;20135;-64
2022/09/14 11:27:21;;;;;;;8.40;1.27;;;;;;;20.65;55.68;99942.69;6067920;28;20041;-64
2022/09/14 11:30:20;;;;;;;5.10;1.38;;;;;;;20.24;55.28;99934.53;6067575;28;20091;-63
2022/09/14 11:33:21;;;;;;;4.28;1.20;;;;;;;20.45;56.93;99936.75;6068039;28;20061;-63
2022/09/14 11:36:43;;;;;;;7.95;1.30;;;;;;;20.76;56.52;99944.59;6069486;28;20041;-64
2022/09/14 11:39:46;;;;;;;5.70;1.63;;;;;;;20.55;54.53;99937.81;6067879;28;20045;-65
2022/09/14 11:43:05;;;;;;;3.80;1.20;;;;;;;20.51;55.60;99952.00;6069292;28;20033;-64
2022/09/14 11:46:09;;;;;;;4.55;1.30;;;;;;;20.38;56.52;99944.94;6069461;28;20033;-64
2022/09/14 11:49:10;;;;;;;8.75;1.58;;;;;;;20.24;56.05;99946.16;6068614;28;20034;-64
2022/09/14 11:52:20;;;;;;;5.78;1.50;;;;;;;19.83;56.27;99933.38;6068981;28;20034;-65
2022/09/14 11:55:16;;;;;;;7.25;2.15;;;;;;;19.96;56.16;99938.59;6069514;28;20526;-64
2022/09/14 11:58:21;;;;;;;5.00;1.17;;;;;;;20.23;56.10;99933.69;6069658;28;20091;-63
2022/09/14 12:01:28;;;;;;;3.72;0.82;;;;;;;20.26;53.20;99921.69;6069418;28;20045;-64
2022/09/14 12:04:23;;;;;;;8.45;1.23;;;;;;;20.44;53.94;99918.94;6069270;28;20033;-64
2022/09/14 12:07:41;;;;;;;4.53;1.10;;;;;;;20.34;54.04;99934.81;6069816;28;20084;-64
2022/09/14 12:11:08;;;;;;;3.90;0.82;;;;;;;19.54;57.61;99934.13;6068377;28;20032;-63
2022/09/14 12:14:22;;;;;;;3.47;1.38;;;;;;;19.51;58.26;99948.03;6064692;28;20041;-64
2022/09/14 12:17:26;;;;;;;5.45;1.35;;;;;;;19.70;56.58;99930.03;6071420;28;20041;-63
2022/09/14 12:20:36;;;;;;;4.68;1.10;;;;;;;19.81;56.37;99942.72;6072425;28;20106;-64
2022/09/14 12:23:41;;;;;;;7.03;1.20;;;;;;;20.00;54.93;99933.59;6074033;28;20049;-66
2022/09/14 12:26:37;;;;;;;5.97;0.90;;;;;;;19.81;56.27;99935.44;6073975;28;20033;-64
2022/09/14 12:29:33;;;;;;;4.22;1.13;;;;;;;19.49;58.71;99925.88;6072187;28;20075;-64
2022/09/14 12:32:43;;;;;;;5.35;0.80;;;;;;;19.52;58.92;99942.41;6071951;28;20116;-64
2022/09/14 12:35:38;;;;;;;4.72;1.00;;;;;;;19.58;57.75;99936.16;6072781;28;20025;-64
2022/09/14 12:38:37;;;;;;;4.03;0.90;;;;;;;19.20;58.79;99926.56;6073520;28;20483;-64
2022/09/14 12:41:35;;;;;;;4.97;1.15;;;;;;;19.21;57.98;99921.00;6072590;28;20384;-64
2022/09/14 12:44:41;;;;;;;5.82;0.98;;;;;;;19.51;57.53;99905.00;6073122;28;20087;-64
2022/09/14 12:47:37;;;;;;;5.70;1.20;;;;;;;19.08;59.71;99901.47;6072077;28;20464;-63
2022/09/14 12:50:34;;;;;;;7.38;1.40;;;;;;;19.28;59.26;99913.66;6072842;28;20090;-64
2022/09/14 12:53:31;;;;;;;7.35;1.33;;;;;;;19.10;60.62;99904.75;6071921;28;20041;-62
2022/09/14 12:56:35;;;;;;;3.40;1.08;;;;;;;18.97;61.32;99924.47;6072933;28;20030;-63
2022/09/14 12:59:55;;;;;;;5.68;1.05;;;;;;;19.02;60.00;99909.34;6073181;28;20029;-63
2022/09/14 13:03:12;;;;;;;5.30;1.13;;;;;;;19.10;59.14;99899.38;6072198;28;20033;-63
2022/09/14 13:06:12;;;;;;;4.13;1.05;;;;;;;18.88;61.34;99891.72;6072992;28;20120;-64
2022/09/14 13:09:16;;;;;;;4.20;0.80;;;;;;;18.91;60.32;99896.66;6071434;28;20461;-65
2022/09/14 13:12:13;;;;;;;3.05;1.00;;;;;;;18.84;61.60;99901.25;6071430;28;20491;-63
2022/09/14 13:15:21;;;;;;;5.25;1.00;;;;;;;18.58;60.70;99909.50;6071318;28;20033;-63
2022/09/14 13:18:16;;;;;;;4.47;0.80;;;;;;;18.31;60.66;99899.97;6071330;28;20034;-63
2022/09/14 13:21:23;;;;;;;2.58;0.82;;;;;;;18.23;61.56;99895.69;6071595;28;20037;-62
2022/09/14 13:24:41;;;;;;;5.40;1.30;;;;;;;18.19;62.48;99881.03;6072085;28;20091;-63
2022/09/14 13:27:37;;;;;;;8.98;4.43;;;;;;;18.65;62.61;99891.47;6071613;28;20758;-64
2022/09/14 13:30:33;;;;;;;6.10;1.02;;;;;;;18.83;59.97;99888.84;6070464;28;20033;-63
2022/09/14 13:33:29;;;;;;;3.28;0.90;;;;;;;18.40;59.93;99875.31;6070742;28;20041;-64
2022/09/14 13:36:27;;;;;;;8.00;0.83;;;;;;;18.65;61.96;99886.09;6072151;28;20057;-63
2022/09/14 13:39:30;;;;;;;3.55;0.98;;;;;;;18.84;62.88;99881.59;6072345;28;20841;-63
2022/09/14 13:42:26;;;;;;;3.03;1.20;;;;;;;18.64;61.04;99880.97;6069507;28;20034;-64
2022/09/14 13:45:22;;;;;;;4.60;0.80;;;;;;;18.60;62.46;99872.50;6071933;28;20037;-63
2022/09/14 13:48:18;;;;;;;4.38;0.93;;;;;;;18.62;61.94;99875.78;6071568;28;20121;-64
2022/09/14 13:51:14;;;;;;;2.38;0.90;;;;;;;18.55;62.64;99882.25;6070001;28;20038;-64
2022/09/14 13:54:23;;;;;;;5.68;1.10;;;;;;;18.46;63.08;99881.66;6071782;28;20061;-66
2022/09/14 13:57:21;;;;;;;3.75;1.00;;;;;;;18.52;61.66;99880.00;6071682;28;20037;-65